Nearby Meteorological Terminal Aviation Routine Weather Reports (METAR)
KAVP - Avoca/Wilkes B., Pennsylvania, USA
Distance from station: NE 13mi, 20km
Updated: Thu, 15-Nov-2018 8:54am EST
Clear
Clear
 Wind from varies
Wind: varies 5 mph , 7 km/h
Temperature: 28°F , -2°C
Wind Chill: 22°F , -6°C
Dew Point: 14°F , -10°C
Humidity: 55%
Barometer: 30.47 inHg , 1031.8 hPa
Clouds: Clear
Visibility: 10 miles , 16 km
2018/11/15 13:54 KAVP 151354Z VRB04KT 10SM CLR M02/M10 A3047 RMK AO2 SLP329 T10221100
KMPO - Mt. Pocono, Pennsylvania, USA
Distance from station: ESE 28mi, 45km
Updated: Thu, 15-Nov-2018 8:53am EST
Clear
Clear
 Wind from varies
Wind: varies 5 mph , 7 km/h
Temperature: 21°F , -6°C
Wind Chill: 14°F , -10°C
Dew Point: 16°F , -9°C
Humidity: 80%
Barometer: 30.42 inHg , 1030.1 hPa
Clouds: Clear
Visibility: 10 miles , 16 km
2018/11/15 13:53 KMPO 151353Z AUTO VRB04KT 10SM CLR M06/M09 A3042 RMK AO2 SLP333 T10611094
 
KABE - Allentown, Pennsylvania, USA
Distance from station: SSE 46mi, 74km
Updated: Thu, 15-Nov-2018 8:51am EST
Few Clouds
Few Clouds
 Wind from E
Wind: E 8 mph , 13 km/h
Temperature: 32°F , 0°C
Wind Chill: 25°F , -4°C
Dew Point: 18°F , -8°C
Humidity: 55%
Barometer: 30.51 inHg , 1033.2 hPa
Clouds: Few Clouds
Visibility: 10 miles , 16 km
Cloud details: Few Clouds 3600 ft
2018/11/15 13:51 KABE 151351Z 10007KT 10SM FEW036 00/M08 A3051 RMK AO2 SLP338 T00001083
KXLL - Allentown Queen, Pennsylvania, USA
Distance from station: SSE 50mi, 81km
Updated: Thu, 15-Nov-2018 9:15am EST
Partly cloudy
Partly cloudy
 Wind from E
Wind: E 9 mph , 15 km/h
Temperature: 32°F , 0°C
Wind Chill: 24°F , -4°C
Dew Point: 18°F , -8°C
Humidity: 55%
Barometer: 30.52 inHg , 1033.5 hPa
Clouds: Partly cloudy
Visibility: 10 miles , 16 km
Cloud details: Partly cloudy 12000 ft
2018/11/15 14:15 KXLL 151415Z AUTO 08008KT 10SM SCT120 00/M08 A3052 RMK AO2
 
KIPT - Williamsport, Pennsylvania, USA
Distance from station: W 52mi, 84km
Updated: Thu, 15-Nov-2018 8:54am EST
Partly cloudy
Partly cloudy
 Wind from E
Wind: E 12 mph , 19 km/h
Temperature: 30°F , -1°C
Wind Chill: 20°F , -7°C
Dew Point: 18°F , -8°C
Humidity: 59%
Barometer: 30.45 inHg , 1031.2 hPa
Clouds: Partly cloudy
Visibility: 10 miles , 16 km
Cloud details: Partly cloudy 12000 ft
2018/11/15 13:54 KIPT 151354Z 08010KT 10SM SCT120 M01/M08 A3045 RMK AO2 SLP318 T10111083
KSEG - Selinsgrove, Pennsylvania, USA
Distance from station: WSW 57mi, 92km
Updated: Thu, 15-Nov-2018 8:53am EST
Overcast
Overcast
 Wind from SSE
Wind: SSE 9 mph , 15 km/h
Temperature: 30°F , -1°C
Wind Chill: 22°F , -6°C
Dew Point: 18°F , -8°C
Humidity: 59%
Barometer: 30.47 inHg , 1031.8 hPa
Clouds: Overcast
Visibility: 10 miles , 16 km
Cloud details: Few Clouds 4100 ft
Overcast 11000 ft
2018/11/15 13:53 KSEG 151353Z AUTO 15008KT 10SM FEW041 OVC110 M01/M08 A3047 RMK AO2 SLP324 T10061083
 
KRDG - Reading, Pennsylvania, USA
Distance from station: S 59mi, 95km
Updated: Thu, 15-Nov-2018 8:54am EST
Overcast
Overcast
 Wind from E
Wind: E 8 mph , 13 km/h
Temperature: 32°F , 0°C
Wind Chill: 25°F , -4°C
Dew Point: 19°F , -7°C
Humidity: 60%
Barometer: 30.49 inHg , 1032.5 hPa
Clouds: Overcast
Visibility: 10 miles , 16 km
Cloud details: Overcast 12000 ft
2018/11/15 13:54 KRDG 151354Z 10007KT 060V140 10SM OVC120 00/M07 A3049 RMK AO2 SLP334 T00001072
KUKT - Quakertown Arp, Pennsylvania, USA
Distance from station: SSE 61mi, 98km
Updated: Thu, 15-Nov-2018 9:15am EST
Clear
Clear
 Wind from NE
Wind: NE 7 mph , 11 km/h
Temperature: 30°F , -1°C
Wind Chill: 23°F , -5°C
Dew Point: 16°F , -9°C
Humidity: 55%
Barometer: 30.50 inHg , 1032.8 hPa
Clouds: Clear
Visibility: 10 miles , 16 km
2018/11/15 14:15 KUKT 151415Z AUTO 05006KT 10SM CLR M01/M09 A3050 RMK A01
 
K12N - Andover, New Jersey, USA
Distance from station: ESE 63mi, 101km
Updated: Thu, 15-Nov-2018 8:54am EST

 Wind from calm
Wind: Calm
Temperature: 28°F , -2°C
Dew Point: 12°F , -11°C
Humidity: 51%
Barometer: 30.53 inHg , 1033.9 hPa
2018/11/15 13:54 K12N 151354Z AUTO 00000KT M02/M11 A3053 RMK AO1 SLP350 T10221111
KMUI - Muir Aaf/Indiant, Pennsylvania, USA
Distance from station: SSW 65mi, 105km
Updated: Thu, 15-Nov-2018 9:28am EST
Overcast
Overcast
 Wind from ENE
Wind: ENE 9 mph , 15 km/h
Temperature: 30°F , -1°C
Wind Chill: 22°F , -6°C
Dew Point: 18°F , -8°C
Humidity: 59%
Barometer: 30.45 inHg , 1031.2 hPa
Clouds: Overcast
Visibility: 10 miles , 16 km
Cloud details: Overcast 2900 ft
2018/11/15 14:28 KMUI 151428Z 07008KT 10SM OVC029 M01/M08 A3045 RMK AO2A SLP320 $
 
KFWN - Sussex, New Jersey, USA
Distance from station: E 66mi, 107km
Updated: Thu, 15-Nov-2018 8:53am EST
Clear
Clear
 Wind from NNE
Wind: NNE 5 mph , 7 km/h
Temperature: 28°F , -2°C
Wind Chill: 22°F , -6°C
Dew Point: 16°F , -9°C
Humidity: 59%
Barometer: 30.54 inHg , 1034.2 hPa
Clouds: Clear
Visibility: 10 miles , 16 km
2018/11/15 13:53 KFWN 151353Z AUTO 03004KT 10SM CLR M02/M09 A3054 RMK AO2 SLP347 T10221089
KMSV - Monticello, New York, USA
Distance from station: ENE 67mi, 108km
Updated: Thu, 15-Nov-2018 8:56am EST
Clear
Clear
 Wind from E
Wind: E 6 mph , 9 km/h
Temperature: 21°F , -6°C
Wind Chill: 13°F , -11°C
Dew Point: 12°F , -11°C
Humidity: 68%
Barometer: 30.48 inHg , 1032.2 hPa
Clouds: Clear
Visibility: 10 miles , 16 km
2018/11/15 13:56 KMSV 151356Z AUTO 10005KT 10SM CLR M06/M11 A3048 RMK AO2 SLP346 T10561111 FZRANO
 
KBGM - Binghamton, New York, USA
Distance from station: N 69mi, 111km
Updated: Thu, 15-Nov-2018 8:53am EST
Clear
Clear
 Wind from ESE
Wind: ESE 9 mph , 15 km/h
Temperature: 19°F , -7°C
Wind Chill: 8°F , -13°C
Dew Point: 18°F , -8°C
Humidity: 93%
Barometer: 30.39 inHg , 1029.1 hPa
Clouds: Clear
Visibility: 10 miles , 16 km
2018/11/15 13:53 KBGM 151353Z 12008KT 10SM CLR M07/M08 A3039 RMK AO2 SLP319 T10671083
KPTW - Pottstown, Pennsylvania, USA
Distance from station: SSE 71mi, 114km
Updated: Wed, 14-Nov-2018 8:54am EST
NOT Current
Clear
Clear
 Wind from NW
Wind: NW 9 mph , 15 km/h, Gust: 17 mph , 28 km/h
Temperature: 36°F , 2°C
Wind Chill: 29°F , -2°C
Dew Point: 19°F , -7°C
Humidity: 52%
Barometer: 30.42 inHg , 1030.1 hPa
Clouds: Clear
Visibility: 10 miles , 16 km
2018/11/14 13:54 KPTW 141354Z AUTO 31008G15KT 260V320 10SM CLR 02/M07 A3042 RMK AO2 SLP300 T00221072
 
KDYL - Doylestown, Pennsylvania, USA
Distance from station: SE 74mi, 119km
Updated: Thu, 15-Nov-2018 8:54am EST
Mostly cloudy
Mostly cloudy
 Wind from varies
Wind: varies 6 mph , 9 km/h
Temperature: 30°F , -1°C
Wind Chill: 24°F , -4°C
Dew Point: 16°F , -9°C
Humidity: 55%
Barometer: 30.50 inHg , 1032.8 hPa
Clouds: Mostly cloudy
Visibility: 10 miles , 16 km
Cloud details: Mostly cloudy 12000 ft
2018/11/15 13:54 KDYL 151354Z AUTO VRB05KT 10SM BKN120 M01/M09 A3050 RMK AO2 SLP336 T10061089
KSMQ - Somerville, New Jersey, USA
Distance from station: ESE 77mi, 124km
Updated: Thu, 15-Nov-2018 8:53am EST
Clear
Clear
 Wind from NNE
Wind: NNE 6 mph , 9 km/h
Temperature: 30°F , -1°C
Wind Chill: 24°F , -4°C
Dew Point: 12°F , -11°C
Humidity: 47%
Barometer: 30.53 inHg , 1033.9 hPa
Clouds: Clear
Visibility: 10 miles , 16 km
2018/11/15 13:53 KSMQ 151353Z AUTO 03005KT 10SM CLR M01/M11 A3053 RMK AO2 SLP341 T10061106
 
KLNS - Lancaster, Pennsylvania, USA
Distance from station: SSW 79mi, 127km
Updated: Thu, 15-Nov-2018 8:53am EST
Overcast
Overcast
 Wind from E
Wind: E 10 mph , 17 km/h
Temperature: 34°F , 1°C
Wind Chill: 26°F , -3°C
Dew Point: 19°F , -7°C
Humidity: 56%
Barometer: 30.48 inHg , 1032.2 hPa
Clouds: Overcast
Visibility: 10 miles , 16 km
Cloud details: Overcast 3100 ft
2018/11/15 13:53 KLNS 151353Z 09009KT 10SM OVC031 01/M07 A3048 RMK AO2 SLP325 T00061067
KELM - Elmira, New York, USA
Distance from station: NW 82mi, 132km
Updated: Thu, 15-Nov-2018 8:53am EST
Clear
Clear
 Wind from calm
Wind: Calm
Temperature: 28°F , -2°C
Dew Point: 18°F , -8°C
Humidity: 64%
Barometer: 30.43 inHg , 1030.5 hPa
Clouds: Clear
Visibility: 10 miles , 16 km
2018/11/15 13:53 KELM 151353Z 00000KT 10SM CLR M02/M08 A3043 RMK AO2 SLP317 T10221078
 
KLOM - Philly Wings F, Pennsylvania, USA
Distance from station: SSE 82mi, 132km
Updated: Thu, 15-Nov-2018 9:15am EST
Overcast
Overcast
 Wind from ENE
Wind: ENE 6 mph , 9 km/h
Temperature: 32°F , 0°C
Wind Chill: 26°F , -3°C
Dew Point: 19°F , -7°C
Humidity: 60%
Barometer: 30.51 inHg , 1033.2 hPa
Clouds: Overcast
Visibility: 10 miles , 16 km
Cloud details: Overcast 10000 ft
2018/11/15 14:15 KLOM 151415Z AUTO 06005KT 10SM OVC100 00/M07 A3051 RMK AO1
KMMU - Morristown Muni, New Jersey, USA
Distance from station: ESE 83mi, 134km
Updated: Thu, 15-Nov-2018 8:50am EST
Overcast
Overcast
 Wind from ENE
Wind: ENE 7 mph , 11 km/h
Temperature: 30°F , -1°C
Wind Chill: 23°F , -5°C
Dew Point: 18°F , -8°C
Humidity: 59%
Barometer: 30.56 inHg , 1034.9 hPa
Clouds: Overcast
Visibility: 10 miles , 16 km
Cloud details: Overcast 15000 ft
2018/11/15 13:50 KMMU 151350Z 06006KT 10SM OVC150 M01/M08 A3056

Metar display script from Saratoga-Weather.org


Cairn Terrier Rescue
teddybearweather.com 2009-2018